Terminal Aerodrome Forecast
Issued by NWS Charleston, WV

Current Version | Previous Version | Graphics & Text | Print | Product List | Glossary On
Versions: 1 2 3 4 5 6 7 8 9 10 11 12 13 14 15 16 17 18 19 20 21 22 23 24
938
FTUS41 KRLX 240543
TAFPKB
TAF
KPKB 240543Z 2406/2506 00000KT P6SM SCT250
     FM240900 00000KT 3SM BR FEW001
     FM241200 15003KT P6SM SCT150
     FM241600 19006KT P6SM BKN070
     FM242200 15004KT P6SM BKN110
     FM250100 00000KT P6SM SCT110=

USA.gov is the U.S. government's official web portal to all federal, state and local government web resources and services.